KTRL/TRL METAR and TAF weather

Enter ICAO airport designator
Station Type Date Time Source
KTRL METAR 2020/03/31 12:53 UTC NOAA

KTRL 311253Z AUTO 32010KT 10SM OVC027 13/10 A3003 RMK AO2 SLP165 T01280100


Station Type Date Time Source
KTRL Decoded METAR 2020/03/31 12:53 UTC NOAA

TERRELL MUNICIPAL AIRPORT, TX, United States (KTRL) 32-43N 96-16W 144M
Mar 31, 2020 - 08:53 AM EDT / 2020.03.31 1253 UTC
Wind: from the NW (320 degrees) at 12 MPH (10 KT):0
Visibility: 10 mile(s):0
Sky conditions: overcast
Temperature: 55.0 F (12.8 C)
Dew Point: 50.0 F (10.0 C)
Relative Humidity: 83%
Pressure (altimeter): 30.03 in. Hg (1016 hPa)
ob: KTRL 311253Z AUTO 32010KT 10SM OVC027 13/10 A3003 RMK AO2 SLP165 T01280100
cycle: 13

Station Type Date Time Source
KTRL TAF UTC NOAA

Error!

Example: see airport list